createdAt,value
2018-03-16T00:01:10.246Z,-6.57
2018-03-16T00:03:37.802Z,-6.59
2018-03-16T00:06:05.520Z,-6.61
2018-03-16T00:08:33.101Z,-6.61
2018-03-16T00:11:00.691Z,-6.65
2018-03-16T00:13:28.296Z,-6.68
2018-03-16T00:15:55.911Z,-6.71
2018-03-16T00:18:24.927Z,-6.73
2018-03-16T00:20:52.473Z,-6.75
2018-03-16T00:23:20.070Z,-6.78
2018-03-16T00:25:48.314Z,-6.80
2018-03-16T00:28:15.911Z,-6.84
2018-03-16T00:30:43.505Z,-6.84
2018-03-16T00:33:11.084Z,-6.85
2018-03-16T00:35:38.634Z,-6.89
2018-03-16T00:38:07.057Z,-6.90
2018-03-16T00:40:34.589Z,-6.92
2018-03-16T00:43:02.312Z,-6.93
2018-03-16T00:45:29.922Z,-6.95
2018-03-16T00:47:57.454Z,-6.98
2018-03-16T00:50:25.601Z,-7.00
2018-03-16T00:52:53.827Z,-7.03
2018-03-16T00:55:21.382Z,-7.02
2018-03-16T00:57:49.999Z,-7.05
2018-03-16T01:00:18.354Z,-7.07
2018-03-16T01:02:45.884Z,-7.07
2018-03-16T01:05:13.418Z,-7.10
2018-03-16T01:07:41.433Z,-7.12
2018-03-16T01:10:09.026Z,-7.14
2018-03-16T01:12:36.577Z,-7.13
2018-03-16T01:15:04.328Z,-7.13
2018-03-16T01:17:32.825Z,-7.15
2018-03-16T01:20:00.392Z,-7.17
2018-03-16T01:22:27.966Z,-7.18
2018-03-16T01:24:55.520Z,-7.16
2018-03-16T01:27:23.756Z,-7.20
2018-03-16T01:29:51.275Z,-7.23
2018-03-16T01:32:18.805Z,-7.28
2018-03-16T01:34:46.372Z,-7.30
2018-03-16T01:37:14.624Z,-7.31
2018-03-16T01:39:42.147Z,-7.33
2018-03-16T01:42:09.677Z,-7.33
2018-03-16T01:44:37.232Z,-7.37
2018-03-16T01:47:04.821Z,-7.41
2018-03-16T01:49:32.404Z,-7.41
2018-03-16T01:52:00.479Z,-7.44
2018-03-16T01:54:28.029Z,-7.48
2018-03-16T01:56:55.554Z,-7.51
2018-03-16T01:59:23.872Z,-7.54
2018-03-16T02:01:51.405Z,-7.55
2018-03-16T02:04:18.920Z,-7.56
2018-03-16T02:06:47.058Z,-7.55
2018-03-16T02:09:14.605Z,-7.57
2018-03-16T02:11:42.120Z,-7.58
2018-03-16T02:14:09.740Z,-7.59
2018-03-16T02:16:37.270Z,-7.61
2018-03-16T02:19:05.294Z,-7.66
2018-03-16T02:21:32.820Z,-7.69
2018-03-16T02:24:00.410Z,-7.71
2018-03-16T02:26:27.996Z,-7.71
2018-03-16T02:28:55.528Z,-7.71
2018-03-16T02:31:23.252Z,-7.73
2018-03-16T02:33:51.694Z,-7.73
2018-03-16T02:36:19.924Z,-7.75
2018-03-16T02:38:47.463Z,-7.77
2018-03-16T02:41:15.075Z,-7.77
2018-03-16T02:43:42.645Z,-7.78
2018-03-16T02:46:10.209Z,-7.78
2018-03-16T02:48:37.756Z,-7.79
2018-03-16T02:51:05.941Z,-7.81
2018-03-16T02:53:34.899Z,-7.81
2018-03-16T02:56:02.576Z,-7.83
2018-03-16T02:58:30.556Z,-7.86
2018-03-16T03:00:58.628Z,-7.89
2018-03-16T03:03:26.212Z,-7.91
2018-03-16T03:05:54.640Z,-7.91
2018-03-16T03:08:22.197Z,-7.92
2018-03-16T03:10:49.725Z,-7.92
2018-03-16T03:13:17.278Z,-7.93
2018-03-16T03:15:44.862Z,-7.95
2018-03-16T03:18:13.436Z,-7.96
2018-03-16T03:20:40.992Z,-7.97
2018-03-16T03:23:08.549Z,-8.01
2018-03-16T03:25:36.152Z,-7.99
2018-03-16T03:28:03.741Z,-7.99
2018-03-16T03:30:31.426Z,-8.01
2018-03-16T03:32:59.498Z,-8.03
2018-03-16T03:35:27.023Z,-8.04
2018-03-16T03:37:56.203Z,-8.04
2018-03-16T03:40:23.727Z,-8.06
2018-03-16T03:42:51.262Z,-8.07
2018-03-16T03:45:18.824Z,-8.09
2018-03-16T03:47:46.369Z,-8.13
2018-03-16T03:50:14.500Z,-8.16
2018-03-16T03:52:42.516Z,-8.17
2018-03-16T03:55:10.207Z,-8.18
2018-03-16T03:57:37.749Z,-8.17
2018-03-16T04:00:06.626Z,-8.20
2018-03-16T04:02:34.152Z,-8.22
2018-03-16T04:05:02.001Z,-8.23
2018-03-16T04:07:30.797Z,-8.27
2018-03-16T04:09:58.344Z,-8.27
2018-03-16T04:12:25.884Z,-8.28
2018-03-16T04:14:53.528Z,-8.30
2018-03-16T04:17:21.528Z,-8.31
2018-03-16T04:19:49.586Z,-8.32
2018-03-16T04:22:17.152Z,-8.32
2018-03-16T04:24:44.712Z,-8.33
2018-03-16T04:27:12.244Z,-8.33
2018-03-16T04:29:40.224Z,-8.34
2018-03-16T04:32:07.796Z,-8.34
2018-03-16T04:34:35.331Z,-8.34
2018-03-16T04:37:03.882Z,-8.34
2018-03-16T04:39:31.431Z,-8.35
2018-03-16T04:41:59.152Z,-8.36
2018-03-16T04:44:26.752Z,-8.37
2018-03-16T04:46:54.276Z,-8.37
2018-03-16T04:49:21.830Z,-8.35
2018-03-16T04:51:50.055Z,-8.36
2018-03-16T04:54:17.588Z,-8.35
2018-03-16T04:56:45.105Z,-8.37
2018-03-16T04:59:13.457Z,-8.37
2018-03-16T05:01:41.564Z,-8.37
2018-03-16T05:04:09.086Z,-8.36
2018-03-16T05:06:37.579Z,-8.37
2018-03-16T05:09:06.056Z,-8.38
2018-03-16T05:11:33.588Z,-8.39
2018-03-16T05:14:01.341Z,-8.38
2018-03-16T05:16:29.114Z,-8.36
2018-03-16T05:18:57.144Z,-8.37
2018-03-16T05:21:24.668Z,-8.37
2018-03-16T05:23:52.204Z,-8.36
2018-03-16T05:26:20.511Z,-8.34
2018-03-16T05:28:48.064Z,-8.31
2018-03-16T05:31:15.604Z,-8.30
2018-03-16T05:36:12.960Z,-8.24
2018-03-16T05:38:40.500Z,-8.21
2018-03-16T05:41:08.028Z,-8.17
2018-03-16T05:43:35.624Z,-8.09
2018-03-16T05:46:03.174Z,-8.05
2018-03-16T05:48:30.873Z,-8.03
2018-03-16T05:50:59.248Z,-8.01
2018-03-16T05:53:26.766Z,-7.98
2018-03-16T05:55:54.310Z,-7.94
2018-03-16T05:58:21.872Z,-7.90
2018-03-16T06:00:49.982Z,-7.89
2018-03-16T06:03:17.520Z,-7.85
2018-03-16T06:05:45.731Z,-7.81
2018-03-16T06:08:13.264Z,-7.76
2018-03-16T06:10:40.797Z,-7.70
2018-03-16T06:13:08.356Z,-7.63
2018-03-16T06:15:35.884Z,-7.58
2018-03-16T06:18:04.083Z,-7.52
2018-03-16T06:20:31.614Z,-7.44
2018-03-16T06:23:00.519Z,-7.37
2018-03-16T06:25:29.188Z,-7.31
2018-03-16T06:27:56.788Z,-7.23
2018-03-16T06:30:24.317Z,-7.13
2018-03-16T06:32:51.897Z,-7.10
2018-03-16T06:35:19.431Z,-7.03
2018-03-16T06:37:47.974Z,-6.97
2018-03-16T06:40:15.548Z,-6.92
2018-03-16T06:42:43.084Z,-6.87
2018-03-16T06:45:10.662Z,-6.80
2018-03-16T06:47:38.184Z,-6.75
2018-03-16T06:50:06.817Z,-6.71
2018-03-16T06:52:34.913Z,-6.62
2018-03-16T06:55:02.473Z,-6.52
2018-03-16T06:57:30.127Z,-6.45
2018-03-16T06:59:58.606Z,-6.39
2018-03-16T07:02:26.246Z,-6.31
2018-03-16T07:04:53.782Z,-6.24
2018-03-16T07:07:22.001Z,-6.21
2018-03-16T07:09:49.619Z,-6.10
2018-03-16T07:12:17.149Z,-6.08
2018-03-16T07:14:44.752Z,-6.05
2018-03-16T07:17:12.352Z,-6.03
2018-03-16T07:19:40.521Z,-5.95
2018-03-16T07:22:08.676Z,-5.89
2018-03-16T07:24:36.245Z,-5.78
2018-03-16T07:27:03.846Z,-5.72
2018-03-16T07:29:31.451Z,-5.67
2018-03-16T07:31:59.099Z,-5.57
2018-03-16T07:34:26.761Z,-5.51
2018-03-16T07:36:54.897Z,-5.48
2018-03-16T07:39:22.452Z,-5.42
2018-03-16T07:41:50.448Z,-5.33
2018-03-16T07:44:18.034Z,-5.27
2018-03-16T07:46:45.644Z,-5.19
2018-03-16T07:49:13.224Z,-5.11
2018-03-16T07:51:41.450Z,-5.00
2018-03-16T07:54:09.016Z,-4.90
2018-03-16T07:56:36.677Z,-4.86
2018-03-16T07:59:05.084Z,-4.84
2018-03-16T08:01:33.331Z,-4.73
2018-03-16T08:04:01.205Z,-4.65
2018-03-16T08:06:29.701Z,-4.57
2018-03-16T08:08:58.167Z,-4.53
2018-03-16T08:11:25.812Z,-4.58
2018-03-16T08:13:53.546Z,-4.53
2018-03-16T08:16:21.151Z,-4.45
2018-03-16T08:18:49.677Z,-4.43
2018-03-16T08:21:17.239Z,-4.40
2018-03-16T08:23:44.890Z,-4.30
2018-03-16T08:26:12.555Z,-4.20
2018-03-16T08:28:40.193Z,-4.11
2018-03-16T08:31:08.774Z,-4.05
2018-03-16T08:33:36.439Z,-3.97
2018-03-16T08:36:05.044Z,-3.86
2018-03-16T08:38:32.692Z,-3.73
2018-03-16T08:41:00.376Z,-3.54
2018-03-16T08:43:28.038Z,-3.42
2018-03-16T08:45:55.912Z,-3.31
2018-03-16T08:48:23.535Z,-3.26
2018-03-16T08:50:51.887Z,-3.18
2018-03-16T08:53:19.609Z,-3.16
2018-03-16T08:55:47.247Z,-3.10
2018-03-16T08:58:14.969Z,-3.02
2018-03-16T09:00:43.375Z,-2.92
2018-03-16T09:03:11.031Z,-2.88
2018-03-16T09:05:39.065Z,-2.92
2018-03-16T09:08:06.799Z,-2.90
2018-03-16T09:10:34.511Z,-2.91
2018-03-16T09:13:02.224Z,-2.92
2018-03-16T09:15:30.042Z,-2.88
2018-03-16T09:17:58.425Z,-2.76
2018-03-16T09:20:26.415Z,-2.76
2018-03-16T09:22:53.991Z,-2.64
2018-03-16T09:25:21.775Z,-2.49
2018-03-16T09:27:49.400Z,-2.40
2018-03-16T09:30:17.262Z,-2.39
2018-03-16T09:32:45.012Z,-2.27
2018-03-16T09:35:12.710Z,-2.16
2018-03-16T09:37:41.603Z,-1.97
2018-03-16T09:40:09.293Z,-1.87
2018-03-16T09:42:36.938Z,-1.75
2018-03-16T09:45:04.773Z,-1.69
2018-03-16T09:47:32.793Z,-1.75
2018-03-16T09:50:02.303Z,-1.74
2018-03-16T09:52:30.727Z,-1.68
2018-03-16T09:55:10.312Z,-1.66
2018-03-16T09:57:38.126Z,-1.58
2018-03-16T10:00:07.017Z,-1.62
2018-03-16T10:02:34.762Z,-1.57
2018-03-16T10:05:02.540Z,-1.57
2018-03-16T10:07:31.201Z,-1.59
2018-03-16T10:09:59.019Z,-1.60
2018-03-16T10:12:26.964Z,-1.47
2018-03-16T10:14:56.692Z,-1.43
2018-03-16T10:17:25.675Z,-1.41
2018-03-16T10:19:53.594Z,-1.60
2018-03-16T10:22:21.378Z,-1.62
2018-03-16T10:24:49.340Z,-1.73
2018-03-16T10:27:17.319Z,-1.66
2018-03-16T10:29:45.086Z,-1.77
2018-03-16T10:32:13.079Z,-1.73
2018-03-16T10:34:41.955Z,-1.45
2018-03-16T10:37:10.860Z,-1.27
2018-03-16T10:39:38.692Z,-0.98
2018-03-16T10:42:06.485Z,-0.87
2018-03-16T10:44:34.249Z,-0.81
2018-03-16T10:47:02.135Z,-0.74
2018-03-16T10:49:32.000Z,-0.74
2018-03-16T10:52:00.302Z,-0.55
2018-03-16T10:54:27.939Z,-0.63
2018-03-16T10:56:55.668Z,-0.51
2018-03-16T10:59:24.125Z,-0.39
2018-03-16T11:01:55.542Z,-0.45
2018-03-16T11:04:33.930Z,-0.48
2018-03-16T11:07:07.852Z,-0.38
2018-03-16T11:09:35.551Z,-0.30
2018-03-16T11:12:03.890Z,-0.32
2018-03-16T11:14:31.691Z,-0.25
2018-03-16T11:16:59.454Z,-0.17
2018-03-16T11:19:28.179Z,-0.22
2018-03-16T11:21:56.037Z,-0.17
2018-03-16T11:24:23.717Z,-0.19
2018-03-16T11:26:51.324Z,-0.09
2018-03-16T11:29:19.186Z,0.13
2018-03-16T11:31:46.805Z,0.18
2018-03-16T11:34:14.767Z,0.24
2018-03-16T11:36:43.180Z,0.39
2018-03-16T11:39:11.712Z,0.63
2018-03-16T11:41:39.272Z,0.50
2018-03-16T11:44:06.878Z,0.46
2018-03-16T11:46:34.620Z,0.40
2018-03-16T11:49:02.431Z,0.30
2018-03-16T11:51:31.222Z,0.26
2018-03-16T11:53:58.968Z,0.14
2018-03-16T11:56:26.729Z,0.28
2018-03-16T11:58:54.966Z,0.46
2018-03-16T12:01:23.236Z,0.72
2018-03-16T12:03:50.757Z,1.06
2018-03-16T12:06:19.238Z,1.31
2018-03-16T12:08:46.812Z,1.38
2018-03-16T12:11:15.124Z,1.39
2018-03-16T12:13:42.820Z,1.09
2018-03-16T12:16:10.442Z,0.77
2018-03-16T12:18:39.077Z,0.61
2018-03-16T12:21:06.786Z,0.44
2018-03-16T12:23:34.427Z,0.34
2018-03-16T12:26:02.257Z,0.27
2018-03-16T12:28:49.272Z,0.26
2018-03-16T12:30:57.745Z,0.42
2018-03-16T12:33:25.358Z,0.37
2018-03-16T12:35:53.189Z,0.20
2018-03-16T12:38:21.500Z,0.01
2018-03-16T12:40:49.173Z,-0.13
2018-03-16T12:43:16.774Z,-0.25
2018-03-16T12:45:44.395Z,-0.40
2018-03-16T12:48:11.976Z,-0.17
2018-03-16T12:50:40.375Z,0.11
2018-03-16T12:53:08.050Z,0.26
2018-03-16T12:55:35.687Z,0.13
2018-03-16T12:58:03.344Z,0.03
2018-03-16T13:00:32.810Z,-0.02
2018-03-16T13:03:00.561Z,0.03
2018-03-16T13:05:28.349Z,0.05
2018-03-16T13:07:57.036Z,-0.13
2018-03-16T13:10:24.728Z,-0.31
2018-03-16T13:12:52.360Z,-0.49
2018-03-16T13:15:19.988Z,-0.51
2018-03-16T13:17:48.332Z,-0.37
2018-03-16T13:20:16.010Z,-0.21
2018-03-16T13:22:44.684Z,0.02
2018-03-16T13:25:12.337Z,0.27
2018-03-16T13:27:39.962Z,0.43
2018-03-16T13:30:07.699Z,0.71
2018-03-16T13:32:35.246Z,1.02
2018-03-16T13:38:01.802Z,1.15
2018-03-16T13:40:29.444Z,1.01
2018-03-16T13:42:57.200Z,0.90
2018-03-16T13:45:26.895Z,0.64
2018-03-16T13:47:54.545Z,0.49
2018-03-16T13:50:23.025Z,0.37
2018-03-16T13:52:50.976Z,0.44
2018-03-16T13:55:18.722Z,0.68
2018-03-16T13:57:46.344Z,0.73
2018-03-16T14:00:14.727Z,0.69
2018-03-16T14:02:42.319Z,0.40
2018-03-16T14:05:11.135Z,0.03
2018-03-16T14:07:39.194Z,-0.27
2018-03-16T14:10:06.808Z,-0.49
2018-03-16T14:12:34.425Z,-0.65
2018-03-16T14:15:02.244Z,-0.73
2018-03-16T14:17:30.994Z,-0.72
2018-03-16T14:19:58.686Z,-0.86
2018-03-16T14:22:26.370Z,-1.05
2018-03-16T14:24:54.040Z,-1.03
2018-03-16T14:27:21.696Z,-0.96
2018-03-16T14:29:49.334Z,-0.89
2018-03-16T14:32:17.039Z,-0.62
2018-03-16T14:34:44.605Z,-0.34
2018-03-16T14:37:12.806Z,-0.29
2018-03-16T14:39:40.392Z,-0.21
2018-03-16T14:42:08.047Z,-0.38
2018-03-16T14:44:36.276Z,-0.68
2018-03-16T14:47:03.895Z,-1.05
2018-03-16T14:49:31.659Z,-1.29
2018-03-16T14:51:59.935Z,-1.47
2018-03-16T14:54:27.583Z,-1.48
2018-03-16T14:56:55.859Z,-1.53
2018-03-16T14:59:24.978Z,-1.55
2018-03-16T15:01:53.522Z,-1.51
2018-03-16T15:04:22.321Z,-1.50
2018-03-16T15:06:50.830Z,-1.54
2018-03-16T15:09:18.489Z,-1.53
2018-03-16T15:11:46.147Z,-1.56
2018-03-16T15:14:13.968Z,-1.57
2018-03-16T15:16:41.883Z,-1.57
2018-03-16T15:19:09.987Z,-1.55
2018-03-16T15:21:38.095Z,-1.60
2018-03-16T15:24:05.928Z,-1.68
2018-03-16T15:26:33.858Z,-1.73
2018-03-16T15:29:01.624Z,-1.74
2018-03-16T15:31:29.523Z,-1.70
2018-03-16T15:33:58.333Z,-1.62
2018-03-16T15:36:26.991Z,-1.55
2018-03-16T15:38:57.753Z,-1.46
2018-03-16T15:41:25.907Z,-1.43
2018-03-16T15:43:53.691Z,-1.39
2018-03-16T15:46:21.474Z,-1.33
2018-03-16T15:48:49.322Z,-1.23
2018-03-16T15:51:17.563Z,-1.26
2018-03-16T15:53:45.182Z,-1.33
2018-03-16T15:56:12.907Z,-1.38
2018-03-16T15:58:41.450Z,-1.42
2018-03-16T16:01:09.845Z,-1.39
2018-03-16T16:03:37.560Z,-1.36
2018-03-16T16:06:05.859Z,-1.39
2018-03-16T16:08:33.553Z,-1.41
2018-03-16T16:11:01.563Z,-1.46
2018-03-16T16:13:29.292Z,-1.50
2018-03-16T16:15:57.381Z,-1.65
2018-03-16T16:18:26.075Z,-1.80
2018-03-16T16:20:53.737Z,-1.93
2018-03-16T16:23:21.371Z,-2.06
2018-03-16T16:25:49.041Z,-2.35
2018-03-16T16:28:16.692Z,-2.68
2018-03-16T16:30:44.321Z,-2.98
2018-03-16T16:33:11.928Z,-3.23
2018-03-16T16:35:39.556Z,-3.42
2018-03-16T16:38:07.779Z,-3.49
2018-03-16T16:40:35.368Z,-3.54
2018-03-16T16:43:03.120Z,-3.55
2018-03-16T16:45:31.119Z,-3.55
2018-03-16T16:47:59.165Z,-3.54
2018-03-16T16:50:27.305Z,-3.53
2018-03-16T16:52:55.594Z,-3.56
2018-03-16T16:55:23.303Z,-3.54
2018-03-16T16:57:51.621Z,-3.56
2018-03-16T17:00:19.729Z,-3.57
2018-03-16T17:02:47.376Z,-3.60
2018-03-16T17:05:14.978Z,-3.63
2018-03-16T17:07:43.144Z,-3.69
2018-03-16T17:10:10.748Z,-3.75
2018-03-16T17:12:38.370Z,-3.78
2018-03-16T17:15:06.065Z,-3.83
2018-03-16T17:17:34.929Z,-3.88
2018-03-16T17:20:02.609Z,-3.93
2018-03-16T17:22:30.503Z,-3.98
2018-03-16T17:24:58.189Z,-4.01
2018-03-16T17:27:26.039Z,-4.03
2018-03-16T17:29:53.694Z,-4.06
2018-03-16T17:32:24.243Z,-4.06
2018-03-16T17:34:49.940Z,-4.05
2018-03-16T17:37:18.166Z,-4.06
2018-03-16T17:39:45.709Z,-4.07
2018-03-16T17:42:13.324Z,-4.08
2018-03-16T17:44:40.949Z,-4.08
2018-03-16T17:47:08.492Z,-4.10
2018-03-16T17:49:36.128Z,-4.11
2018-03-16T17:52:04.288Z,-4.09
2018-03-16T17:54:31.852Z,-4.09
2018-03-16T17:57:00.229Z,-4.10
2018-03-16T17:59:29.218Z,-4.11
2018-03-16T18:01:57.317Z,-4.11
2018-03-16T18:04:25.060Z,-4.11
2018-03-16T18:06:53.673Z,-4.08
2018-03-16T18:09:21.262Z,-4.08
2018-03-16T18:11:48.949Z,-4.07
2018-03-16T18:14:16.579Z,-4.07
2018-03-16T18:16:44.137Z,-4.08
2018-03-16T18:19:12.515Z,-4.08
2018-03-16T18:21:40.098Z,-4.09
2018-03-16T18:24:07.654Z,-4.10
2018-03-16T18:26:35.225Z,-4.10
2018-03-16T18:29:02.833Z,-4.12
2018-03-16T18:31:30.569Z,-4.13
2018-03-16T18:33:58.331Z,-4.14
2018-03-16T18:36:27.002Z,-4.17
2018-03-16T18:38:54.982Z,-4.21
2018-03-16T18:41:22.510Z,-4.24
2018-03-16T18:43:50.195Z,-4.26
2018-03-16T18:46:17.810Z,-4.26
2018-03-16T18:48:45.389Z,-4.29
2018-03-16T18:51:13.943Z,-4.30
2018-03-16T18:53:42.356Z,-4.32
2018-03-16T18:56:09.923Z,-4.34
2018-03-16T18:58:38.243Z,-4.36
2018-03-16T19:01:06.601Z,-4.37
2018-03-16T19:03:34.222Z,-4.39
2018-03-16T19:06:02.528Z,-4.42
2018-03-16T19:08:30.411Z,-4.44
2018-03-16T19:10:58.087Z,-4.47
2018-03-16T19:13:25.692Z,-4.50
2018-03-16T19:15:53.301Z,-4.50
2018-03-16T19:18:21.353Z,-4.51
2018-03-16T19:20:48.914Z,-4.52
2018-03-16T19:23:16.456Z,-4.55
2018-03-16T19:25:44.135Z,-4.56
2018-03-16T19:28:11.746Z,-4.59
2018-03-16T19:30:39.347Z,-4.66
2018-03-16T19:33:06.913Z,-4.69
2018-03-16T19:35:34.464Z,-4.74
2018-03-16T19:38:02.714Z,-4.79
2018-03-16T19:40:30.422Z,-4.83
2018-03-16T19:42:58.054Z,-4.90
2018-03-16T19:45:25.613Z,-4.98
2018-03-16T19:47:53.166Z,-5.04
2018-03-16T19:50:22.687Z,-5.09
2018-03-16T19:52:50.857Z,-5.14
2018-03-16T19:55:18.400Z,-5.17
2018-03-16T19:57:45.984Z,-5.20
2018-03-16T20:00:14.417Z,-5.23
2018-03-16T20:02:41.947Z,-5.27
2018-03-16T20:05:09.507Z,-5.30
2018-03-16T20:07:37.815Z,-5.37
2018-03-16T20:10:05.442Z,-5.40
2018-03-16T20:12:33.004Z,-5.46
2018-03-16T20:15:00.765Z,-5.49
2018-03-16T20:17:29.337Z,-5.54
2018-03-16T20:19:56.946Z,-5.56
2018-03-16T20:22:24.875Z,-5.58
2018-03-16T20:24:52.807Z,-5.59
2018-03-16T20:27:20.413Z,-5.62
2018-03-16T20:29:48.031Z,-5.63
2018-03-16T20:32:15.574Z,-5.61
2018-03-16T20:34:44.088Z,-5.60
2018-03-16T20:37:12.396Z,-5.59
2018-03-16T20:39:39.946Z,-5.59
2018-03-16T20:42:07.551Z,-5.59
2018-03-16T20:44:35.169Z,-5.58
2018-03-16T20:47:02.726Z,-5.56
2018-03-16T20:49:31.062Z,-5.53
2018-03-16T20:51:59.455Z,-5.53
2018-03-16T20:54:27.227Z,-5.54
2018-03-16T20:56:54.866Z,-5.57
2018-03-16T20:59:23.154Z,-5.58
2018-03-16T21:01:51.208Z,-5.66
2018-03-16T21:04:18.798Z,-5.72
2018-03-16T21:06:46.939Z,-5.78
2018-03-16T21:09:14.506Z,-5.82
2018-03-16T21:11:42.063Z,-5.87
2018-03-16T21:14:09.614Z,-5.95
2018-03-16T21:16:37.161Z,-5.98
2018-03-16T21:19:06.164Z,-6.04
2018-03-16T21:21:33.732Z,-6.06
2018-03-16T21:24:01.471Z,-6.08
2018-03-16T21:26:29.169Z,-6.09
2018-03-16T21:28:56.952Z,-6.12
2018-03-16T21:31:24.497Z,-6.14
2018-03-16T21:33:52.773Z,-6.19
2018-03-16T21:36:21.340Z,-6.19
2018-03-16T21:38:48.875Z,-6.20
2018-03-16T21:41:16.413Z,-6.20
2018-03-16T21:43:43.984Z,-6.22
2018-03-16T21:46:12.044Z,-6.25
2018-03-16T21:48:40.449Z,-6.31
2018-03-16T21:51:08.593Z,-6.34
2018-03-16T21:53:36.174Z,-6.36
2018-03-16T21:56:03.815Z,-6.39
2018-03-16T21:58:31.970Z,-6.40
2018-03-16T22:01:00.318Z,-6.41
2018-03-16T22:03:28.004Z,-6.46
2018-03-16T22:05:55.973Z,-6.49
2018-03-16T22:08:24.232Z,-6.50
2018-03-16T22:10:51.810Z,-6.51
2018-03-16T22:13:19.359Z,-6.48
2018-03-16T22:15:46.985Z,-6.48
2018-03-16T22:18:15.152Z,-6.48
2018-03-16T22:20:42.735Z,-6.47
2018-03-16T22:23:10.298Z,-6.47
2018-03-16T22:25:38.921Z,-6.45
2018-03-16T22:28:06.512Z,-6.44
2018-03-16T22:30:34.308Z,-6.45
2018-03-16T22:33:02.076Z,-6.45
2018-03-16T22:35:29.729Z,-6.45
2018-03-16T22:37:58.354Z,-6.47
2018-03-16T22:40:25.935Z,-6.48
2018-03-16T22:42:54.152Z,-6.49
2018-03-16T22:45:21.714Z,-6.49
2018-03-16T22:47:49.333Z,-6.49
2018-03-16T22:50:17.536Z,-6.49
2018-03-16T22:52:45.615Z,-6.50
2018-03-16T22:55:13.196Z,-6.51
2018-03-16T22:57:40.758Z,-6.52
2018-03-16T23:00:08.934Z,-6.52
2018-03-16T23:02:36.481Z,-6.54
2018-03-16T23:05:04.058Z,-6.55
2018-03-16T23:07:32.262Z,-6.57
2018-03-16T23:09:59.909Z,-6.59
2018-03-16T23:12:27.478Z,-6.60
2018-03-16T23:14:55.112Z,-6.61
2018-03-16T23:17:23.389Z,-6.61
2018-03-16T23:19:51.229Z,-6.62
2018-03-16T23:22:18.886Z,-6.64
2018-03-16T23:24:46.480Z,-6.65
2018-03-16T23:27:14.024Z,-6.65
2018-03-16T23:29:41.664Z,-6.67
2018-03-16T23:32:09.267Z,-6.69
2018-03-16T23:34:36.822Z,-6.69
2018-03-16T23:37:05.353Z,-6.70
2018-03-16T23:39:33.078Z,-6.71
2018-03-16T23:42:01.463Z,-6.74
2018-03-16T23:44:29.270Z,-6.76
2018-03-16T23:46:56.858Z,-6.76
2018-03-16T23:49:25.049Z,-6.78
2018-03-16T23:51:53.454Z,-6.81
2018-03-16T23:54:21.008Z,-6.80
2018-03-16T23:56:48.548Z,-6.82
2018-03-16T23:59:20.348Z,-6.83
